sensor_id;sensor_type;location;lat;lon;timestamp;P1;durP1;ratioP1;P2;durP2;ratioP2
12900;SDS011;6518;50.930;5.344;2022-10-04T00:00:59;9.43;;;6.30;;
12900;SDS011;6518;50.930;5.344;2022-10-04T00:03:31;9.03;;;5.40;;
12900;SDS011;6518;50.930;5.344;2022-10-04T00:06:01;9.37;;;5.13;;
12900;SDS011;6518;50.930;5.344;2022-10-04T00:08:32;11.63;;;5.73;;
12900;SDS011;6518;50.930;5.344;2022-10-04T00:11:06;9.90;;;6.13;;
12900;SDS011;6518;50.930;5.344;2022-10-04T00:13:39;8.80;;;5.13;;
12900;SDS011;6518;50.930;5.344;2022-10-04T00:16:12;9.83;;;4.97;;
12900;SDS011;6518;50.930;5.344;2022-10-04T00:18:46;9.17;;;5.30;;
12900;SDS011;6518;50.930;5.344;2022-10-04T00:21:13;9.07;;;5.17;;
12900;SDS011;6518;50.930;5.344;2022-10-04T00:23:43;8.97;;;5.33;;
12900;SDS011;6518;50.930;5.344;2022-10-04T00:27:08;11.97;;;5.27;;
12900;SDS011;6518;50.930;5.344;2022-10-04T00:29:35;10.17;;;5.23;;
12900;SDS011;6518;50.930;5.344;2022-10-04T00:34:50;8.53;;;4.67;;
12900;SDS011;6518;50.930;5.344;2022-10-04T00:37:18;12.17;;;5.37;;
12900;SDS011;6518;50.930;5.344;2022-10-04T00:39:47;9.17;;;5.37;;
12900;SDS011;6518;50.930;5.344;2022-10-04T00:42:44;8.20;;;4.70;;
12900;SDS011;6518;50.930;5.344;2022-10-04T00:45:17;9.17;;;5.10;;
12900;SDS011;6518;50.930;5.344;2022-10-04T00:51:09;7.87;;;5.50;;
12900;SDS011;6518;50.930;5.344;2022-10-04T00:53:43;8.53;;;4.97;;
12900;SDS011;6518;50.930;5.344;2022-10-04T00:56:19;6.47;;;4.80;;
12900;SDS011;6518;50.930;5.344;2022-10-04T00:59:04;7.73;;;5.13;;
12900;SDS011;6518;50.930;5.344;2022-10-04T01:01:42;8.93;;;5.07;;
12900;SDS011;6518;50.930;5.344;2022-10-04T01:04:20;7.50;;;4.97;;
12900;SDS011;6518;50.930;5.344;2022-10-04T01:06:52;7.07;;;5.03;;
12900;SDS011;6518;50.930;5.344;2022-10-04T01:09:22;8.87;;;5.10;;
12900;SDS011;6518;50.930;5.344;2022-10-04T01:11:54;9.13;;;5.27;;
12900;SDS011;6518;50.930;5.344;2022-10-04T01:14:28;9.57;;;5.40;;
12900;SDS011;6518;50.930;5.344;2022-10-04T01:17:00;7.60;;;5.30;;
12900;SDS011;6518;50.930;5.344;2022-10-04T01:19:28;7.97;;;5.27;;
12900;SDS011;6518;50.930;5.344;2022-10-04T01:21:57;10.47;;;4.90;;
12900;SDS011;6518;50.930;5.344;2022-10-04T01:24:35;9.73;;;5.50;;
12900;SDS011;6518;50.930;5.344;2022-10-04T01:27:03;8.93;;;5.10;;
12900;SDS011;6518;50.930;5.344;2022-10-04T01:29:57;10.20;;;5.50;;
12900;SDS011;6518;50.930;5.344;2022-10-04T01:32:25;10.93;;;6.07;;
12900;SDS011;6518;50.930;5.344;2022-10-04T01:34:52;9.93;;;5.10;;
12900;SDS011;6518;50.930;5.344;2022-10-04T01:37:19;8.90;;;5.33;;
12900;SDS011;6518;50.930;5.344;2022-10-04T01:39:47;11.50;;;5.33;;
12900;SDS011;6518;50.930;5.344;2022-10-04T01:42:14;11.10;;;6.10;;
12900;SDS011;6518;50.930;5.344;2022-10-04T01:44:47;10.60;;;5.57;;
12900;SDS011;6518;50.930;5.344;2022-10-04T01:47:21;9.40;;;5.13;;
12900;SDS011;6518;50.930;5.344;2022-10-04T01:49:51;9.03;;;5.70;;
12900;SDS011;6518;50.930;5.344;2022-10-04T01:52:22;15.23;;;5.63;;
12900;SDS011;6518;50.930;5.344;2022-10-04T01:54:58;11.90;;;5.20;;
12900;SDS011;6518;50.930;5.344;2022-10-04T01:57:30;10.53;;;5.77;;
12900;SDS011;6518;50.930;5.344;2022-10-04T02:00:01;10.87;;;5.17;;
12900;SDS011;6518;50.930;5.344;2022-10-04T02:02:31;7.40;;;5.10;;
12900;SDS011;6518;50.930;5.344;2022-10-04T02:05:04;10.97;;;5.53;;
12900;SDS011;6518;50.930;5.344;2022-10-04T02:07:34;10.57;;;5.73;;
12900;SDS011;6518;50.930;5.344;2022-10-04T02:10:05;11.33;;;5.77;;
12900;SDS011;6518;50.930;5.344;2022-10-04T02:12:35;10.00;;;6.20;;
12900;SDS011;6518;50.930;5.344;2022-10-04T02:15:05;10.73;;;5.10;;
12900;SDS011;6518;50.930;5.344;2022-10-04T02:17:39;7.67;;;5.17;;
12900;SDS011;6518;50.930;5.344;2022-10-04T02:20:08;6.77;;;4.70;;
12900;SDS011;6518;50.930;5.344;2022-10-04T02:22:40;10.20;;;5.17;;
12900;SDS011;6518;50.930;5.344;2022-10-04T02:25:09;12.33;;;5.23;;
12900;SDS011;6518;50.930;5.344;2022-10-04T02:27:38;9.17;;;5.17;;
12900;SDS011;6518;50.930;5.344;2022-10-04T02:30:06;10.93;;;5.57;;
12900;SDS011;6518;50.930;5.344;2022-10-04T02:32:35;11.57;;;5.30;;
12900;SDS011;6518;50.930;5.344;2022-10-04T02:35:21;10.20;;;5.10;;
12900;SDS011;6518;50.930;5.344;2022-10-04T02:37:52;9.90;;;5.20;;
12900;SDS011;6518;50.930;5.344;2022-10-04T02:40:27;10.90;;;4.90;;
12900;SDS011;6518;50.930;5.344;2022-10-04T02:42:57;9.23;;;5.40;;
12900;SDS011;6518;50.930;5.344;2022-10-04T02:45:31;7.67;;;4.33;;
12900;SDS011;6518;50.930;5.344;2022-10-04T02:48:10;8.67;;;4.80;;
12900;SDS011;6518;50.930;5.344;2022-10-04T02:50:47;8.43;;;4.83;;
12900;SDS011;6518;50.930;5.344;2022-10-04T02:53:20;9.17;;;4.50;;
12900;SDS011;6518;50.930;5.344;2022-10-04T02:55:53;11.97;;;4.13;;
12900;SDS011;6518;50.930;5.344;2022-10-04T02:58:21;8.37;;;4.60;;
12900;SDS011;6518;50.930;5.344;2022-10-04T03:00:51;8.30;;;4.27;;
12900;SDS011;6518;50.930;5.344;2022-10-04T03:03:22;9.43;;;4.70;;
12900;SDS011;6518;50.930;5.344;2022-10-04T03:05:52;8.17;;;4.50;;
12900;SDS011;6518;50.930;5.344;2022-10-04T03:08:24;11.57;;;4.97;;
12900;SDS011;6518;50.930;5.344;2022-10-04T03:10:54;10.30;;;5.20;;
12900;SDS011;6518;50.930;5.344;2022-10-04T03:13:22;8.83;;;4.80;;
12900;SDS011;6518;50.930;5.344;2022-10-04T03:15:49;10.73;;;5.03;;
12900;SDS011;6518;50.930;5.344;2022-10-04T03:18:16;11.87;;;5.27;;
12900;SDS011;6518;50.930;5.344;2022-10-04T03:20:44;10.20;;;4.83;;
12900;SDS011;6518;50.930;5.344;2022-10-04T03:23:12;7.23;;;4.60;;
12900;SDS011;6518;50.930;5.344;2022-10-04T03:25:44;9.40;;;4.67;;
12900;SDS011;6518;50.930;5.344;2022-10-04T03:28:17;9.37;;;4.60;;
12900;SDS011;6518;50.930;5.344;2022-10-04T03:30:45;9.43;;;4.37;;
12900;SDS011;6518;50.930;5.344;2022-10-04T03:33:18;8.83;;;4.67;;
12900;SDS011;6518;50.930;5.344;2022-10-04T03:35:48;6.60;;;4.50;;
12900;SDS011;6518;50.930;5.344;2022-10-04T03:38:17;7.77;;;4.50;;
12900;SDS011;6518;50.930;5.344;2022-10-04T03:40:46;9.37;;;4.30;;
12900;SDS011;6518;50.930;5.344;2022-10-04T03:43:19;7.93;;;4.17;;
12900;SDS011;6518;50.930;5.344;2022-10-04T03:45:49;7.97;;;4.53;;
12900;SDS011;6518;50.930;5.344;2022-10-04T03:48:20;7.43;;;4.10;;
12900;SDS011;6518;50.930;5.344;2022-10-04T03:50:52;9.30;;;4.40;;
12900;SDS011;6518;50.930;5.344;2022-10-04T03:53:23;9.73;;;4.37;;
12900;SDS011;6518;50.930;5.344;2022-10-04T03:56:02;7.63;;;4.33;;
12900;SDS011;6518;50.930;5.344;2022-10-04T03:58:36;10.63;;;4.47;;
12900;SDS011;6518;50.930;5.344;2022-10-04T04:01:15;6.43;;;4.40;;
12900;SDS011;6518;50.930;5.344;2022-10-04T04:03:53;9.03;;;4.00;;
12900;SDS011;6518;50.930;5.344;2022-10-04T04:06:25;7.27;;;3.97;;
12900;SDS011;6518;50.930;5.344;2022-10-04T04:08:58;6.67;;;3.97;;
12900;SDS011;6518;50.930;5.344;2022-10-04T04:11:27;7.53;;;4.00;;
12900;SDS011;6518;50.930;5.344;2022-10-04T04:14:00;5.43;;;3.83;;
12900;SDS011;6518;50.930;5.344;2022-10-04T04:16:35;5.90;;;4.10;;
12900;SDS011;6518;50.930;5.344;2022-10-04T04:19:04;6.87;;;4.30;;
12900;SDS011;6518;50.930;5.344;2022-10-04T04:21:38;9.10;;;4.30;;
12900;SDS011;6518;50.930;5.344;2022-10-04T04:24:10;7.27;;;4.17;;
12900;SDS011;6518;50.930;5.344;2022-10-04T04:26:44;5.47;;;4.13;;
12900;SDS011;6518;50.930;5.344;2022-10-04T04:29:17;8.77;;;4.30;;
12900;SDS011;6518;50.930;5.344;2022-10-04T04:31:49;7.07;;;4.40;;
12900;SDS011;6518;50.930;5.344;2022-10-04T04:34:20;7.00;;;4.27;;
12900;SDS011;6518;50.930;5.344;2022-10-04T04:36:49;9.20;;;4.60;;
12900;SDS011;6518;50.930;5.344;2022-10-04T04:39:17;8.60;;;4.40;;
12900;SDS011;6518;50.930;5.344;2022-10-04T04:42:03;8.33;;;4.60;;
12900;SDS011;6518;50.930;5.344;2022-10-04T04:44:39;6.30;;;4.20;;
12900;SDS011;6518;50.930;5.344;2022-10-04T04:47:18;10.33;;;4.90;;
12900;SDS011;6518;50.930;5.344;2022-10-04T04:49:52;8.87;;;4.83;;
12900;SDS011;6518;50.930;5.344;2022-10-04T04:52:20;8.97;;;5.10;;
12900;SDS011;6518;50.930;5.344;2022-10-04T04:54:51;7.50;;;4.70;;
12900;SDS011;6518;50.930;5.344;2022-10-04T04:57:18;7.03;;;4.47;;
12900;SDS011;6518;50.930;5.344;2022-10-04T04:59:47;8.23;;;4.37;;
12900;SDS011;6518;50.930;5.344;2022-10-04T05:02:31;13.10;;;4.73;;
12900;SDS011;6518;50.930;5.344;2022-10-04T05:08:02;10.27;;;5.27;;
12900;SDS011;6518;50.930;5.344;2022-10-04T05:10:36;10.93;;;5.20;;
12900;SDS011;6518;50.930;5.344;2022-10-04T05:13:07;8.93;;;5.00;;
12900;SDS011;6518;50.930;5.344;2022-10-04T05:15:37;9.30;;;4.87;;
12900;SDS011;6518;50.930;5.344;2022-10-04T05:20:56;11.57;;;5.43;;
12900;SDS011;6518;50.930;5.344;2022-10-04T05:23:29;10.80;;;5.10;;
12900;SDS011;6518;50.930;5.344;2022-10-04T05:25:55;9.67;;;5.10;;
12900;SDS011;6518;50.930;5.344;2022-10-04T05:28:26;9.83;;;6.00;;
12900;SDS011;6518;50.930;5.344;2022-10-04T05:33:47;15.80;;;6.10;;
12900;SDS011;6518;50.930;5.344;2022-10-04T05:36:32;8.27;;;5.47;;
12900;SDS011;6518;50.930;5.344;2022-10-04T05:39:14;11.07;;;5.90;;
12900;SDS011;6518;50.930;5.344;2022-10-04T05:41:50;10.77;;;6.00;;
12900;SDS011;6518;50.930;5.344;2022-10-04T05:44:23;14.00;;;6.87;;
12900;SDS011;6518;50.930;5.344;2022-10-04T05:46:54;9.77;;;5.70;;
12900;SDS011;6518;50.930;5.344;2022-10-04T05:49:24;11.97;;;6.07;;
12900;SDS011;6518;50.930;5.344;2022-10-04T05:51:54;14.00;;;6.50;;
12900;SDS011;6518;50.930;5.344;2022-10-04T05:54:25;12.13;;;6.40;;
12900;SDS011;6518;50.930;5.344;2022-10-04T05:57:04;13.40;;;5.90;;
12900;SDS011;6518;50.930;5.344;2022-10-04T05:59:56;9.73;;;6.03;;
12900;SDS011;6518;50.930;5.344;2022-10-04T06:02:58;9.53;;;6.53;;
12900;SDS011;6518;50.930;5.344;2022-10-04T06:05:47;12.20;;;6.10;;
12900;SDS011;6518;50.930;5.344;2022-10-04T06:08:26;9.57;;;6.43;;
12900;SDS011;6518;50.930;5.344;2022-10-04T06:11:04;11.17;;;6.03;;
12900;SDS011;6518;50.930;5.344;2022-10-04T06:13:47;12.57;;;6.10;;
12900;SDS011;6518;50.930;5.344;2022-10-04T06:16:39;12.07;;;6.17;;
12900;SDS011;6518;50.930;5.344;2022-10-04T06:19:29;14.03;;;6.50;;
12900;SDS011;6518;50.930;5.344;2022-10-04T06:22:28;12.27;;;6.63;;
12900;SDS011;6518;50.930;5.344;2022-10-04T06:24:59;9.27;;;6.30;;
12900;SDS011;6518;50.930;5.344;2022-10-04T06:27:30;9.17;;;6.60;;
12900;SDS011;6518;50.930;5.344;2022-10-04T06:30:08;9.50;;;6.53;;
12900;SDS011;6518;50.930;5.344;2022-10-04T06:32:43;12.93;;;7.60;;
12900;SDS011;6518;50.930;5.344;2022-10-04T06:41:27;12.10;;;6.33;;
12900;SDS011;6518;50.930;5.344;2022-10-04T06:44:11;11.03;;;6.20;;
12900;SDS011;6518;50.930;5.344;2022-10-04T06:46:48;10.07;;;6.10;;
12900;SDS011;6518;50.930;5.344;2022-10-04T06:49:19;12.87;;;6.60;;
12900;SDS011;6518;50.930;5.344;2022-10-04T06:52:12;9.77;;;6.37;;
12900;SDS011;6518;50.930;5.344;2022-10-04T06:58:01;14.57;;;7.47;;
12900;SDS011;6518;50.930;5.344;2022-10-04T07:00:44;9.97;;;6.13;;
12900;SDS011;6518;50.930;5.344;2022-10-04T07:03:19;11.73;;;6.97;;
12900;SDS011;6518;50.930;5.344;2022-10-04T07:05:52;11.77;;;7.67;;
12900;SDS011;6518;50.930;5.344;2022-10-04T07:08:25;12.50;;;10.10;;
12900;SDS011;6518;50.930;5.344;2022-10-04T07:10:58;12.13;;;7.67;;
12900;SDS011;6518;50.930;5.344;2022-10-04T07:16:35;9.63;;;6.33;;
12900;SDS011;6518;50.930;5.344;2022-10-04T07:19:19;10.30;;;7.40;;
12900;SDS011;6518;50.930;5.344;2022-10-04T07:21:55;10.20;;;6.90;;
12900;SDS011;6518;50.930;5.344;2022-10-04T07:24:27;9.83;;;7.10;;
12900;SDS011;6518;50.930;5.344;2022-10-04T07:27:06;12.43;;;7.03;;
12900;SDS011;6518;50.930;5.344;2022-10-04T07:29:37;10.00;;;6.60;;
12900;SDS011;6518;50.930;5.344;2022-10-04T07:32:11;11.40;;;6.70;;
12900;SDS011;6518;50.930;5.344;2022-10-04T07:34:44;14.93;;;7.10;;
12900;SDS011;6518;50.930;5.344;2022-10-04T07:37:15;12.07;;;6.70;;
12900;SDS011;6518;50.930;5.344;2022-10-04T07:39:44;9.57;;;6.90;;
12900;SDS011;6518;50.930;5.344;2022-10-04T07:42:18;12.40;;;6.30;;
12900;SDS011;6518;50.930;5.344;2022-10-04T07:44:57;10.60;;;6.47;;
12900;SDS011;6518;50.930;5.344;2022-10-04T07:47:35;11.90;;;7.00;;
12900;SDS011;6518;50.930;5.344;2022-10-04T07:50:12;11.37;;;6.83;;
12900;SDS011;6518;50.930;5.344;2022-10-04T07:52:49;9.60;;;6.50;;
12900;SDS011;6518;50.930;5.344;2022-10-04T07:55:25;14.20;;;6.53;;
12900;SDS011;6518;50.930;5.344;2022-10-04T07:58:08;10.33;;;6.33;;
12900;SDS011;6518;50.930;5.344;2022-10-04T08:00:47;13.00;;;6.47;;
12900;SDS011;6518;50.930;5.344;2022-10-04T08:03:26;11.70;;;7.17;;
12900;SDS011;6518;50.930;5.344;2022-10-04T08:06:11;9.97;;;6.10;;
12900;SDS011;6518;50.930;5.344;2022-10-04T08:08:47;10.43;;;6.50;;
12900;SDS011;6518;50.930;5.344;2022-10-04T08:11:30;8.30;;;6.47;;
12900;SDS011;6518;50.930;5.344;2022-10-04T08:14:09;12.07;;;6.63;;
12900;SDS011;6518;50.930;5.344;2022-10-04T08:16:48;11.50;;;6.53;;
12900;SDS011;6518;50.930;5.344;2022-10-04T08:19:30;11.27;;;7.17;;
12900;SDS011;6518;50.930;5.344;2022-10-04T08:22:11;11.17;;;6.50;;
12900;SDS011;6518;50.930;5.344;2022-10-04T08:24:49;16.67;;;7.20;;
12900;SDS011;6518;50.930;5.344;2022-10-04T08:27:28;8.23;;;6.23;;
12900;SDS011;6518;50.930;5.344;2022-10-04T08:30:10;11.57;;;6.10;;
12900;SDS011;6518;50.930;5.344;2022-10-04T08:35:31;9.33;;;5.73;;
12900;SDS011;6518;50.930;5.344;2022-10-04T08:38:13;10.73;;;6.03;;
12900;SDS011;6518;50.930;5.344;2022-10-04T08:50:30;10.70;;;5.22;;
12900;SDS011;6518;50.930;5.344;2022-10-04T08:53:35;8.47;;;5.00;;
12900;SDS011;6518;50.930;5.344;2022-10-04T08:56:20;6.90;;;5.13;;
12900;SDS011;6518;50.930;5.344;2022-10-04T09:02:15;7.22;;;4.43;;
12900;SDS011;6518;50.930;5.344;2022-10-04T09:05:16;11.38;;;5.40;;
12900;SDS011;6518;50.930;5.344;2022-10-04T09:08:20;11.43;;;5.07;;
12900;SDS011;6518;50.930;5.344;2022-10-04T09:11:25;6.35;;;4.38;;
12900;SDS011;6518;50.930;5.344;2022-10-04T09:17:07;8.02;;;5.05;;
12900;SDS011;6518;50.930;5.344;2022-10-04T09:19:47;11.65;;;4.47;;
12900;SDS011;6518;50.930;5.344;2022-10-04T09:22:28;9.73;;;4.82;;
12900;SDS011;6518;50.930;5.344;2022-10-04T09:31:12;7.68;;;4.70;;
12900;SDS011;6518;50.930;5.344;2022-10-04T09:34:03;22.75;;;6.55;;
12900;SDS011;6518;50.930;5.344;2022-10-04T09:36:50;14.02;;;4.57;;
12900;SDS011;6518;50.930;5.344;2022-10-04T09:39:38;5.22;;;4.10;;
12900;SDS011;6518;50.930;5.344;2022-10-04T09:45:59;7.90;;;3.70;;
12900;SDS011;6518;50.930;5.344;2022-10-04T09:48:42;8.77;;;4.60;;
12900;SDS011;6518;50.930;5.344;2022-10-04T09:51:34;7.68;;;4.50;;
12900;SDS011;6518;50.930;5.344;2022-10-04T09:54:32;7.97;;;4.13;;
12900;SDS011;6518;50.930;5.344;2022-10-04T09:57:32;8.10;;;3.97;;
12900;SDS011;6518;50.930;5.344;2022-10-04T10:00:11;8.35;;;4.35;;
12900;SDS011;6518;50.930;5.344;2022-10-04T10:06:05;6.25;;;4.40;;
12900;SDS011;6518;50.930;5.344;2022-10-04T10:08:55;7.10;;;3.80;;
12900;SDS011;6518;50.930;5.344;2022-10-04T10:11:33;8.27;;;4.30;;
12900;SDS011;6518;50.930;5.344;2022-10-04T10:14:40;5.35;;;4.22;;
12900;SDS011;6518;50.930;5.344;2022-10-04T10:17:37;7.97;;;4.13;;
12900;SDS011;6518;50.930;5.344;2022-10-04T10:23:23;10.23;;;4.40;;
12900;SDS011;6518;50.930;5.344;2022-10-04T10:32:22;6.82;;;4.00;;
12900;SDS011;6518;50.930;5.344;2022-10-04T10:38:15;5.43;;;4.10;;
12900;SDS011;6518;50.930;5.344;2022-10-04T10:41:05;7.38;;;3.83;;
12900;SDS011;6518;50.930;5.344;2022-10-04T10:43:59;8.13;;;4.40;;
12900;SDS011;6518;50.930;5.344;2022-10-04T10:46:39;7.82;;;4.57;;
12900;SDS011;6518;50.930;5.344;2022-10-04T10:49:29;9.50;;;4.65;;
12900;SDS011;6518;50.930;5.344;2022-10-04T10:55:47;14.07;;;4.57;;
12900;SDS011;6518;50.930;5.344;2022-10-04T11:04:44;6.15;;;3.75;;
12900;SDS011;6518;50.930;5.344;2022-10-04T11:16:27;7.55;;;3.50;;
12900;SDS011;6518;50.930;5.344;2022-10-04T11:25:51;8.25;;;3.60;;
12900;SDS011;6518;50.930;5.344;2022-10-04T11:28:29;4.97;;;3.30;;
12900;SDS011;6518;50.930;5.344;2022-10-04T11:34:16;6.03;;;3.70;;
12900;SDS011;6518;50.930;5.344;2022-10-04T11:37:11;5.80;;;3.78;;
12900;SDS011;6518;50.930;5.344;2022-10-04T11:42:56;8.80;;;3.90;;
12900;SDS011;6518;50.930;5.344;2022-10-04T11:48:31;5.70;;;3.88;;
12900;SDS011;6518;50.930;5.344;2022-10-04T11:51:14;6.38;;;3.50;;
12900;SDS011;6518;50.930;5.344;2022-10-04T11:57:13;6.45;;;4.38;;
12900;SDS011;6518;50.930;5.344;2022-10-04T11:59:55;8.90;;;4.00;;
12900;SDS011;6518;50.930;5.344;2022-10-04T12:02:49;6.88;;;3.63;;
12900;SDS011;6518;50.930;5.344;2022-10-04T12:05:44;5.55;;;3.92;;
12900;SDS011;6518;50.930;5.344;2022-10-04T12:08:32;10.10;;;4.38;;
12900;SDS011;6518;50.930;5.344;2022-10-04T12:11:17;6.97;;;3.90;;
12900;SDS011;6518;50.930;5.344;2022-10-04T12:14:44;9.52;;;4.15;;
12900;SDS011;6518;50.930;5.344;2022-10-04T12:20:51;14.40;;;5.72;;
12900;SDS011;6518;50.930;5.344;2022-10-04T12:23:48;10.30;;;4.43;;
12900;SDS011;6518;50.930;5.344;2022-10-04T12:29:58;12.30;;;4.63;;
12900;SDS011;6518;50.930;5.344;2022-10-04T12:32:39;8.18;;;3.60;;
12900;SDS011;6518;50.930;5.344;2022-10-04T12:35:19;4.57;;;3.88;;
12900;SDS011;6518;50.930;5.344;2022-10-04T12:38:16;7.05;;;4.00;;
12900;SDS011;6518;50.930;5.344;2022-10-04T12:40:52;9.10;;;4.00;;
12900;SDS011;6518;50.930;5.344;2022-10-04T12:43:33;6.00;;;3.80;;
12900;SDS011;6518;50.930;5.344;2022-10-04T12:46:12;6.78;;;4.00;;
12900;SDS011;6518;50.930;5.344;2022-10-04T12:48:57;8.13;;;4.10;;
12900;SDS011;6518;50.930;5.344;2022-10-04T12:51:34;7.47;;;3.55;;
12900;SDS011;6518;50.930;5.344;2022-10-04T12:54:17;9.23;;;3.85;;
12900;SDS011;6518;50.930;5.344;2022-10-04T12:57:00;7.93;;;3.90;;
12900;SDS011;6518;50.930;5.344;2022-10-04T12:59:43;9.25;;;4.15;;
12900;SDS011;6518;50.930;5.344;2022-10-04T13:02:28;7.57;;;4.05;;
12900;SDS011;6518;50.930;5.344;2022-10-04T13:05:10;5.05;;;3.85;;
12900;SDS011;6518;50.930;5.344;2022-10-04T13:10:42;7.43;;;3.80;;
12900;SDS011;6518;50.930;5.344;2022-10-04T13:16:20;6.13;;;3.83;;
12900;SDS011;6518;50.930;5.344;2022-10-04T13:19:00;9.45;;;4.38;;
12900;SDS011;6518;50.930;5.344;2022-10-04T13:21:54;9.15;;;4.35;;
12900;SDS011;6518;50.930;5.344;2022-10-04T13:24:30;8.15;;;4.55;;
12900;SDS011;6518;50.930;5.344;2022-10-04T13:27:19;7.97;;;4.30;;
12900;SDS011;6518;50.930;5.344;2022-10-04T13:29:56;11.52;;;5.18;;
12900;SDS011;6518;50.930;5.344;2022-10-04T13:32:32;8.93;;;4.32;;
12900;SDS011;6518;50.930;5.344;2022-10-04T13:35:10;7.97;;;4.75;;
12900;SDS011;6518;50.930;5.344;2022-10-04T13:37:43;9.80;;;3.95;;
12900;SDS011;6518;50.930;5.344;2022-10-04T13:43:07;7.05;;;3.90;;
12900;SDS011;6518;50.930;5.344;2022-10-04T13:45:49;6.25;;;3.78;;
12900;SDS011;6518;50.930;5.344;2022-10-04T13:48:29;6.63;;;4.22;;
12900;SDS011;6518;50.930;5.344;2022-10-04T13:51:13;5.93;;;4.18;;
12900;SDS011;6518;50.930;5.344;2022-10-04T13:53:52;8.25;;;3.50;;
12900;SDS011;6518;50.930;5.344;2022-10-04T13:56:52;9.20;;;3.95;;
12900;SDS011;6518;50.930;5.344;2022-10-04T13:59:33;5.15;;;4.07;;
12900;SDS011;6518;50.930;5.344;2022-10-04T14:02:17;7.03;;;3.70;;
12900;SDS011;6518;50.930;5.344;2022-10-04T14:11:21;6.30;;;2.88;;
12900;SDS011;6518;50.930;5.344;2022-10-04T14:17:47;5.45;;;3.15;;
12900;SDS011;6518;50.930;5.344;2022-10-04T14:23:49;5.25;;;3.13;;
12900;SDS011;6518;50.930;5.344;2022-10-04T14:26:47;5.95;;;3.08;;
12900;SDS011;6518;50.930;5.344;2022-10-04T14:35:52;4.53;;;3.10;;
12900;SDS011;6518;50.930;5.344;2022-10-04T14:38:55;4.97;;;3.22;;
12900;SDS011;6518;50.930;5.344;2022-10-04T14:41:48;5.20;;;3.58;;
12900;SDS011;6518;50.930;5.344;2022-10-04T14:44:34;8.13;;;3.38;;
12900;SDS011;6518;50.930;5.344;2022-10-04T14:47:19;7.32;;;3.55;;
12900;SDS011;6518;50.930;5.344;2022-10-04T14:50:13;5.80;;;3.55;;
12900;SDS011;6518;50.930;5.344;2022-10-04T14:52:49;5.75;;;3.30;;
12900;SDS011;6518;50.930;5.344;2022-10-04T14:55:36;5.95;;;4.05;;
12900;SDS011;6518;50.930;5.344;2022-10-04T14:58:17;6.43;;;3.60;;
12900;SDS011;6518;50.930;5.344;2022-10-04T15:01:00;10.00;;;4.28;;
12900;SDS011;6518;50.930;5.344;2022-10-04T15:03:37;6.85;;;3.72;;
12900;SDS011;6518;50.930;5.344;2022-10-04T15:06:22;6.75;;;4.00;;
12900;SDS011;6518;50.930;5.344;2022-10-04T15:12:15;6.85;;;3.42;;
12900;SDS011;6518;50.930;5.344;2022-10-04T15:15:03;5.95;;;3.33;;
12900;SDS011;6518;50.930;5.344;2022-10-04T15:17:54;4.10;;;2.92;;
12900;SDS011;6518;50.930;5.344;2022-10-04T15:20:29;6.15;;;3.10;;
12900;SDS011;6518;50.930;5.344;2022-10-04T15:23:08;6.82;;;3.58;;
12900;SDS011;6518;50.930;5.344;2022-10-04T15:25:41;4.70;;;3.60;;
12900;SDS011;6518;50.930;5.344;2022-10-04T15:31:07;6.05;;;3.35;;
12900;SDS011;6518;50.930;5.344;2022-10-04T15:33:43;6.78;;;3.95;;
12900;SDS011;6518;50.930;5.344;2022-10-04T15:36:25;7.15;;;3.70;;
12900;SDS011;6518;50.930;5.344;2022-10-04T15:39:05;4.95;;;3.90;;
12900;SDS011;6518;50.930;5.344;2022-10-04T15:41:49;5.97;;;3.58;;
12900;SDS011;6518;50.930;5.344;2022-10-04T15:44:39;6.20;;;3.55;;
12900;SDS011;6518;50.930;5.344;2022-10-04T15:47:27;5.82;;;3.90;;
12900;SDS011;6518;50.930;5.344;2022-10-04T15:50:06;8.55;;;7.45;;
12900;SDS011;6518;50.930;5.344;2022-10-04T15:55:47;6.45;;;4.05;;
12900;SDS011;6518;50.930;5.344;2022-10-04T15:58:36;5.68;;;3.92;;
12900;SDS011;6518;50.930;5.344;2022-10-04T16:01:35;7.68;;;3.50;;
12900;SDS011;6518;50.930;5.344;2022-10-04T16:07:18;4.63;;;3.70;;
12900;SDS011;6518;50.930;5.344;2022-10-04T16:09:57;4.70;;;3.75;;
12900;SDS011;6518;50.930;5.344;2022-10-04T16:12:38;6.38;;;3.65;;
12900;SDS011;6518;50.930;5.344;2022-10-04T16:15:29;6.60;;;3.75;;
12900;SDS011;6518;50.930;5.344;2022-10-04T16:18:00;8.43;;;4.10;;
12900;SDS011;6518;50.930;5.344;2022-10-04T16:23:40;4.35;;;3.70;;
12900;SDS011;6518;50.930;5.344;2022-10-04T16:26:08;8.45;;;4.07;;
12900;SDS011;6518;50.930;5.344;2022-10-04T16:31:50;6.68;;;3.63;;
12900;SDS011;6518;50.930;5.344;2022-10-04T16:37:15;9.75;;;6.47;;
12900;SDS011;6518;50.930;5.344;2022-10-04T16:39:55;8.77;;;4.95;;
12900;SDS011;6518;50.930;5.344;2022-10-04T16:42:29;4.95;;;4.10;;
12900;SDS011;6518;50.930;5.344;2022-10-04T16:48:11;6.40;;;3.92;;
12900;SDS011;6518;50.930;5.344;2022-10-04T16:50:54;7.22;;;3.90;;
12900;SDS011;6518;50.930;5.344;2022-10-04T16:53:41;5.07;;;3.63;;
12900;SDS011;6518;50.930;5.344;2022-10-04T16:56:14;5.55;;;4.00;;
12900;SDS011;6518;50.930;5.344;2022-10-04T17:01:42;5.60;;;4.47;;
12900;SDS011;6518;50.930;5.344;2022-10-04T17:07:21;8.45;;;4.20;;
12900;SDS011;6518;50.930;5.344;2022-10-04T17:09:56;10.38;;;4.72;;
12900;SDS011;6518;50.930;5.344;2022-10-04T17:12:30;5.38;;;4.28;;
12900;SDS011;6518;50.930;5.344;2022-10-04T17:15:10;7.47;;;4.40;;
12900;SDS011;6518;50.930;5.344;2022-10-04T17:18:14;8.18;;;4.72;;
12900;SDS011;6518;50.930;5.344;2022-10-04T17:20:50;8.07;;;5.95;;
12900;SDS011;6518;50.930;5.344;2022-10-04T17:23:37;6.85;;;5.10;;
12900;SDS011;6518;50.930;5.344;2022-10-04T17:29:23;6.55;;;4.60;;
12900;SDS011;6518;50.930;5.344;2022-10-04T17:32:02;11.00;;;6.32;;
12900;SDS011;6518;50.930;5.344;2022-10-04T17:34:35;8.48;;;5.82;;
12900;SDS011;6518;50.930;5.344;2022-10-04T17:37:13;10.05;;;5.03;;
12900;SDS011;6518;50.930;5.344;2022-10-04T17:39:50;6.70;;;4.88;;
12900;SDS011;6518;50.930;5.344;2022-10-04T17:42:27;9.02;;;4.78;;
12900;SDS011;6518;50.930;5.344;2022-10-04T17:45:03;9.32;;;5.15;;
12900;SDS011;6518;50.930;5.344;2022-10-04T17:47:47;6.15;;;5.20;;
12900;SDS011;6518;50.930;5.344;2022-10-04T17:50:40;8.45;;;5.80;;
12900;SDS011;6518;50.930;5.344;2022-10-04T17:53:33;9.07;;;5.20;;
12900;SDS011;6518;50.930;5.344;2022-10-04T17:56:25;9.00;;;6.00;;
12900;SDS011;6518;50.930;5.344;2022-10-04T17:58:57;8.05;;;5.72;;
12900;SDS011;6518;50.930;5.344;2022-10-04T18:01:30;9.40;;;5.82;;
12900;SDS011;6518;50.930;5.344;2022-10-04T18:04:06;8.35;;;5.90;;
12900;SDS011;6518;50.930;5.344;2022-10-04T18:06:40;14.43;;;6.35;;
12900;SDS011;6518;50.930;5.344;2022-10-04T18:09:17;11.23;;;6.78;;
12900;SDS011;6518;50.930;5.344;2022-10-04T18:11:48;13.45;;;6.45;;
12900;SDS011;6518;50.930;5.344;2022-10-04T18:14:37;13.90;;;7.43;;
12900;SDS011;6518;50.930;5.344;2022-10-04T18:17:21;12.10;;;7.93;;
12900;SDS011;6518;50.930;5.344;2022-10-04T18:19:59;12.35;;;7.15;;
12900;SDS011;6518;50.930;5.344;2022-10-04T18:22:44;8.48;;;6.10;;
12900;SDS011;6518;50.930;5.344;2022-10-04T18:25:13;7.38;;;6.28;;
12900;SDS011;6518;50.930;5.344;2022-10-04T18:27:46;14.05;;;8.20;;
12900;SDS011;6518;50.930;5.344;2022-10-04T18:30:18;12.45;;;7.28;;
12900;SDS011;6518;50.930;5.344;2022-10-04T18:32:47;9.98;;;6.50;;
12900;SDS011;6518;50.930;5.344;2022-10-04T18:35:18;10.43;;;6.50;;
12900;SDS011;6518;50.930;5.344;2022-10-04T18:37:49;12.27;;;6.90;;
12900;SDS011;6518;50.930;5.344;2022-10-04T18:40:17;11.20;;;6.57;;
12900;SDS011;6518;50.930;5.344;2022-10-04T18:42:49;8.75;;;6.10;;
12900;SDS011;6518;50.930;5.344;2022-10-04T18:45:21;10.63;;;6.60;;
12900;SDS011;6518;50.930;5.344;2022-10-04T18:47:51;12.05;;;7.38;;
12900;SDS011;6518;50.930;5.344;2022-10-04T18:50:23;10.32;;;6.93;;
12900;SDS011;6518;50.930;5.344;2022-10-04T18:53:04;9.80;;;6.95;;
12900;SDS011;6518;50.930;5.344;2022-10-04T18:55:43;7.57;;;6.28;;
12900;SDS011;6518;50.930;5.344;2022-10-04T18:58:20;9.38;;;7.28;;
12900;SDS011;6518;50.930;5.344;2022-10-04T19:01:31;8.82;;;6.72;;
12900;SDS011;6518;50.930;5.344;2022-10-04T19:04:37;8.93;;;6.60;;